sensor_id;sensor_type;location;lat;lon;timestamp;P1;durP1;ratioP1;P2;durP2;ratioP2
33814;SDS011;20121;51.910;8.406;2022-09-24T00:01:10;5.20;;;4.72;;
33814;SDS011;20121;51.910;8.406;2022-09-24T00:03:37;4.60;;;4.20;;
33814;SDS011;20121;51.910;8.406;2022-09-24T00:06:03;15.35;;;6.10;;
33814;SDS011;20121;51.910;8.406;2022-09-24T00:08:30;5.28;;;4.75;;
33814;SDS011;20121;51.910;8.406;2022-09-24T00:10:59;5.82;;;4.68;;
33814;SDS011;20121;51.910;8.406;2022-09-24T00:13:26;6.10;;;5.00;;
33814;SDS011;20121;51.910;8.406;2022-09-24T00:15:52;5.10;;;4.47;;
33814;SDS011;20121;51.910;8.406;2022-09-24T00:18:18;8.60;;;5.40;;
33814;SDS011;20121;51.910;8.406;2022-09-24T00:20:45;5.93;;;5.30;;
33814;SDS011;20121;51.910;8.406;2022-09-24T00:23:11;7.23;;;4.87;;
33814;SDS011;20121;51.910;8.406;2022-09-24T00:25:40;5.27;;;4.70;;
33814;SDS011;20121;51.910;8.406;2022-09-24T00:28:28;7.00;;;5.50;;
33814;SDS011;20121;51.910;8.406;2022-09-24T00:30:55;5.25;;;4.75;;
33814;SDS011;20121;51.910;8.406;2022-09-24T00:33:24;7.38;;;4.75;;
33814;SDS011;20121;51.910;8.406;2022-09-24T00:35:52;5.60;;;5.10;;
33814;SDS011;20121;51.910;8.406;2022-09-24T00:38:22;9.27;;;6.00;;
33814;SDS011;20121;51.910;8.406;2022-09-24T00:40:49;7.90;;;5.97;;
33814;SDS011;20121;51.910;8.406;2022-09-24T00:43:30;5.57;;;5.07;;
33814;SDS011;20121;51.910;8.406;2022-09-24T00:46:05;6.47;;;4.25;;
33814;SDS011;20121;51.910;8.406;2022-09-24T00:48:51;6.25;;;5.20;;
33814;SDS011;20121;51.910;8.406;2022-09-24T00:51:20;9.40;;;5.05;;
33814;SDS011;20121;51.910;8.406;2022-09-24T00:53:48;9.55;;;3.92;;
33814;SDS011;20121;51.910;8.406;2022-09-24T00:56:16;7.15;;;4.80;;
33814;SDS011;20121;51.910;8.406;2022-09-24T00:58:47;5.22;;;4.47;;
33814;SDS011;20121;51.910;8.406;2022-09-24T01:01:16;6.30;;;5.13;;
33814;SDS011;20121;51.910;8.406;2022-09-24T01:03:43;6.38;;;5.53;;
33814;SDS011;20121;51.910;8.406;2022-09-24T01:06:10;8.32;;;4.90;;
33814;SDS011;20121;51.910;8.406;2022-09-24T01:08:37;4.15;;;3.75;;
33814;SDS011;20121;51.910;8.406;2022-09-24T01:13:35;5.60;;;4.40;;
33814;SDS011;20121;51.910;8.406;2022-09-24T01:16:14;4.53;;;4.13;;
33814;SDS011;20121;51.910;8.406;2022-09-24T01:19:16;5.30;;;4.55;;
33814;SDS011;20121;51.910;8.406;2022-09-24T01:21:55;5.80;;;4.85;;
33814;SDS011;20121;51.910;8.406;2022-09-24T01:29:48;7.15;;;5.00;;
33814;SDS011;20121;51.910;8.406;2022-09-24T01:32:34;6.70;;;4.32;;
33814;SDS011;20121;51.910;8.406;2022-09-24T01:35:16;6.35;;;4.47;;
33814;SDS011;20121;51.910;8.406;2022-09-24T01:37:50;6.07;;;4.10;;
33814;SDS011;20121;51.910;8.406;2022-09-24T01:40:23;9.93;;;3.92;;
33814;SDS011;20121;51.910;8.406;2022-09-24T01:42:51;6.03;;;4.40;;
33814;SDS011;20121;51.910;8.406;2022-09-24T01:45:18;4.65;;;3.50;;
33814;SDS011;20121;51.910;8.406;2022-09-24T01:47:45;8.27;;;4.00;;
33814;SDS011;20121;51.910;8.406;2022-09-24T01:50:12;5.73;;;4.70;;
33814;SDS011;20121;51.910;8.406;2022-09-24T01:52:54;4.85;;;4.32;;
33814;SDS011;20121;51.910;8.406;2022-09-24T01:55:24;4.65;;;3.67;;
33814;SDS011;20121;51.910;8.406;2022-09-24T01:58:02;8.80;;;4.95;;
33814;SDS011;20121;51.910;8.406;2022-09-24T02:00:33;3.45;;;3.15;;
33814;SDS011;20121;51.910;8.406;2022-09-24T02:03:07;6.85;;;3.78;;
33814;SDS011;20121;51.910;8.406;2022-09-24T02:05:55;10.32;;;5.60;;
33814;SDS011;20121;51.910;8.406;2022-09-24T02:08:30;5.32;;;4.63;;
33814;SDS011;20121;51.910;8.406;2022-09-24T02:11:02;4.20;;;3.80;;
33814;SDS011;20121;51.910;8.406;2022-09-24T02:13:36;4.75;;;4.25;;
33814;SDS011;20121;51.910;8.406;2022-09-24T02:16:07;4.68;;;4.00;;
33814;SDS011;20121;51.910;8.406;2022-09-24T02:18:39;6.30;;;4.30;;
33814;SDS011;20121;51.910;8.406;2022-09-24T02:21:10;4.07;;;3.70;;
33814;SDS011;20121;51.910;8.406;2022-09-24T02:23:39;3.85;;;3.13;;
33814;SDS011;20121;51.910;8.406;2022-09-24T02:26:11;3.70;;;3.40;;
33814;SDS011;20121;51.910;8.406;2022-09-24T02:28:37;5.73;;;4.63;;
33814;SDS011;20121;51.910;8.406;2022-09-24T02:31:12;4.78;;;3.30;;
33814;SDS011;20121;51.910;8.406;2022-09-24T02:33:41;5.28;;;4.05;;
33814;SDS011;20121;51.910;8.406;2022-09-24T02:36:28;9.40;;;5.00;;
33814;SDS011;20121;51.910;8.406;2022-09-24T02:38:54;8.60;;;5.15;;
33814;SDS011;20121;51.910;8.406;2022-09-24T02:41:20;12.93;;;4.23;;
33814;SDS011;20121;51.910;8.406;2022-09-24T02:43:48;5.85;;;3.90;;
33814;SDS011;20121;51.910;8.406;2022-09-24T02:46:14;6.50;;;4.38;;
33814;SDS011;20121;51.910;8.406;2022-09-24T02:48:40;6.40;;;5.43;;
33814;SDS011;20121;51.910;8.406;2022-09-24T02:51:05;6.03;;;5.00;;
33814;SDS011;20121;51.910;8.406;2022-09-24T02:53:31;5.40;;;4.33;;
33814;SDS011;20121;51.910;8.406;2022-09-24T02:55:57;11.23;;;5.23;;
33814;SDS011;20121;51.910;8.406;2022-09-24T02:58:25;5.20;;;3.60;;
33814;SDS011;20121;51.910;8.406;2022-09-24T03:00:54;8.68;;;5.32;;
33814;SDS011;20121;51.910;8.406;2022-09-24T03:03:21;5.30;;;4.32;;
33814;SDS011;20121;51.910;8.406;2022-09-24T03:05:50;5.32;;;4.07;;
33814;SDS011;20121;51.910;8.406;2022-09-24T03:08:19;5.65;;;3.63;;
33814;SDS011;20121;51.910;8.406;2022-09-24T03:10:46;5.60;;;3.55;;
33814;SDS011;20121;51.910;8.406;2022-09-24T03:13:13;6.70;;;4.22;;
33814;SDS011;20121;51.910;8.406;2022-09-24T03:15:38;7.00;;;3.93;;
33814;SDS011;20121;51.910;8.406;2022-09-24T03:18:04;4.87;;;4.37;;
33814;SDS011;20121;51.910;8.406;2022-09-24T03:20:30;4.63;;;4.00;;
33814;SDS011;20121;51.910;8.406;2022-09-24T03:22:56;4.80;;;4.35;;
33814;SDS011;20121;51.910;8.406;2022-09-24T03:25:21;5.23;;;3.90;;
33814;SDS011;20121;51.910;8.406;2022-09-24T03:27:47;4.20;;;3.90;;
33814;SDS011;20121;51.910;8.406;2022-09-24T03:30:13;6.43;;;3.60;;
33814;SDS011;20121;51.910;8.406;2022-09-24T03:32:57;5.95;;;4.70;;
33814;SDS011;20121;51.910;8.406;2022-09-24T03:35:23;6.38;;;3.58;;
33814;SDS011;20121;51.910;8.406;2022-09-24T03:37:49;7.37;;;5.30;;
33814;SDS011;20121;51.910;8.406;2022-09-24T03:40:15;4.77;;;3.60;;
33814;SDS011;20121;51.910;8.406;2022-09-24T03:42:41;6.83;;;4.83;;
33814;SDS011;20121;51.910;8.406;2022-09-24T03:45:06;5.37;;;3.73;;
33814;SDS011;20121;51.910;8.406;2022-09-24T03:47:32;5.30;;;4.40;;
33814;SDS011;20121;51.910;8.406;2022-09-24T03:49:58;6.63;;;3.93;;
33814;SDS011;20121;51.910;8.406;2022-09-24T03:52:24;5.00;;;4.60;;
33814;SDS011;20121;51.910;8.406;2022-09-24T03:54:50;8.98;;;7.03;;
33814;SDS011;20121;51.910;8.406;2022-09-24T03:57:16;6.53;;;3.60;;
33814;SDS011;20121;51.910;8.406;2022-09-24T03:59:42;3.67;;;3.38;;
33814;SDS011;20121;51.910;8.406;2022-09-24T04:02:09;4.15;;;3.75;;
33814;SDS011;20121;51.910;8.406;2022-09-24T04:04:35;3.72;;;3.40;;
33814;SDS011;20121;51.910;8.406;2022-09-24T04:07:01;3.77;;;3.47;;
33814;SDS011;20121;51.910;8.406;2022-09-24T04:09:27;3.38;;;3.10;;
33814;SDS011;20121;51.910;8.406;2022-09-24T04:11:52;8.37;;;5.97;;
33814;SDS011;20121;51.910;8.406;2022-09-24T04:14:18;8.33;;;4.80;;
33814;SDS011;20121;51.910;8.406;2022-09-24T04:16:44;4.20;;;3.80;;
33814;SDS011;20121;51.910;8.406;2022-09-24T04:19:11;5.00;;;4.53;;
33814;SDS011;20121;51.910;8.406;2022-09-24T04:21:37;5.90;;;3.85;;
33814;SDS011;20121;51.910;8.406;2022-09-24T04:24:03;8.23;;;4.77;;
33814;SDS011;20121;51.910;8.406;2022-09-24T04:26:29;5.85;;;4.55;;
33814;SDS011;20121;51.910;8.406;2022-09-24T04:28:54;6.13;;;5.03;;
33814;SDS011;20121;51.910;8.406;2022-09-24T04:31:23;6.30;;;3.95;;
33814;SDS011;20121;51.910;8.406;2022-09-24T04:33:49;7.20;;;5.03;;
33814;SDS011;20121;51.910;8.406;2022-09-24T04:36:14;7.03;;;4.53;;
33814;SDS011;20121;51.910;8.406;2022-09-24T04:38:40;6.47;;;4.95;;
33814;SDS011;20121;51.910;8.406;2022-09-24T04:41:06;5.67;;;5.07;;
33814;SDS011;20121;51.910;8.406;2022-09-24T04:43:33;6.45;;;4.75;;
33814;SDS011;20121;51.910;8.406;2022-09-24T04:46:01;13.07;;;4.47;;
33814;SDS011;20121;51.910;8.406;2022-09-24T04:48:27;7.70;;;4.85;;
33814;SDS011;20121;51.910;8.406;2022-09-24T04:50:54;6.15;;;5.65;;
33814;SDS011;20121;51.910;8.406;2022-09-24T04:53:19;5.10;;;4.53;;
33814;SDS011;20121;51.910;8.406;2022-09-24T04:55:46;5.75;;;4.38;;
33814;SDS011;20121;51.910;8.406;2022-09-24T04:58:11;4.40;;;3.50;;
33814;SDS011;20121;51.910;8.406;2022-09-24T05:00:37;4.97;;;4.17;;
33814;SDS011;20121;51.910;8.406;2022-09-24T05:03:02;13.20;;;5.13;;
33814;SDS011;20121;51.910;8.406;2022-09-24T05:05:29;11.25;;;5.93;;
33814;SDS011;20121;51.910;8.406;2022-09-24T05:07:56;6.20;;;5.00;;
33814;SDS011;20121;51.910;8.406;2022-09-24T05:10:25;13.68;;;5.05;;
33814;SDS011;20121;51.910;8.406;2022-09-24T05:12:52;7.05;;;4.18;;
33814;SDS011;20121;51.910;8.406;2022-09-24T05:15:18;4.30;;;3.90;;
33814;SDS011;20121;51.910;8.406;2022-09-24T05:17:44;3.80;;;3.50;;
33814;SDS011;20121;51.910;8.406;2022-09-24T05:20:11;5.43;;;4.20;;
33814;SDS011;20121;51.910;8.406;2022-09-24T05:22:43;5.13;;;4.63;;
33814;SDS011;20121;51.910;8.406;2022-09-24T05:25:10;6.70;;;4.50;;
33814;SDS011;20121;51.910;8.406;2022-09-24T05:27:42;9.50;;;6.60;;
33814;SDS011;20121;51.910;8.406;2022-09-24T05:30:12;6.07;;;4.43;;
33814;SDS011;20121;51.910;8.406;2022-09-24T05:32:38;5.55;;;4.38;;
33814;SDS011;20121;51.910;8.406;2022-09-24T05:35:04;5.80;;;5.27;;
33814;SDS011;20121;51.910;8.406;2022-09-24T05:37:32;5.35;;;4.90;;
33814;SDS011;20121;51.910;8.406;2022-09-24T05:39:58;5.32;;;4.80;;
33814;SDS011;20121;51.910;8.406;2022-09-24T05:42:44;6.30;;;5.55;;
33814;SDS011;20121;51.910;8.406;2022-09-24T05:45:10;7.60;;;6.80;;
33814;SDS011;20121;51.910;8.406;2022-09-24T05:47:37;6.28;;;5.53;;
33814;SDS011;20121;51.910;8.406;2022-09-24T05:50:03;5.70;;;5.13;;
33814;SDS011;20121;51.910;8.406;2022-09-24T05:52:29;7.35;;;5.82;;
33814;SDS011;20121;51.910;8.406;2022-09-24T05:54:55;5.60;;;4.83;;
33814;SDS011;20121;51.910;8.406;2022-09-24T05:57:21;7.90;;;5.53;;
33814;SDS011;20121;51.910;8.406;2022-09-24T05:59:46;8.53;;;6.30;;
33814;SDS011;20121;51.910;8.406;2022-09-24T06:02:12;7.37;;;4.87;;
33814;SDS011;20121;51.910;8.406;2022-09-24T06:04:37;13.00;;;5.67;;
33814;SDS011;20121;51.910;8.406;2022-09-24T06:07:03;7.47;;;5.17;;
33814;SDS011;20121;51.910;8.406;2022-09-24T06:09:28;7.60;;;6.13;;
33814;SDS011;20121;51.910;8.406;2022-09-24T06:11:54;7.43;;;4.83;;
33814;SDS011;20121;51.910;8.406;2022-09-24T06:14:20;13.40;;;6.60;;
33814;SDS011;20121;51.910;8.406;2022-09-24T06:16:45;7.00;;;5.40;;
33814;SDS011;20121;51.910;8.406;2022-09-24T06:19:11;7.07;;;6.23;;
33814;SDS011;20121;51.910;8.406;2022-09-24T06:21:36;10.60;;;5.17;;
33814;SDS011;20121;51.910;8.406;2022-09-24T06:24:02;10.47;;;6.17;;
33814;SDS011;20121;51.910;8.406;2022-09-24T06:26:28;15.23;;;8.77;;
33814;SDS011;20121;51.910;8.406;2022-09-24T06:28:53;12.90;;;5.53;;
33814;SDS011;20121;51.910;8.406;2022-09-24T06:31:19;9.40;;;5.70;;
33814;SDS011;20121;51.910;8.406;2022-09-24T06:33:45;7.63;;;6.57;;
33814;SDS011;20121;51.910;8.406;2022-09-24T06:36:10;9.97;;;7.43;;
33814;SDS011;20121;51.910;8.406;2022-09-24T06:38:36;8.93;;;6.37;;
33814;SDS011;20121;51.910;8.406;2022-09-24T06:41:04;6.90;;;5.60;;
33814;SDS011;20121;51.910;8.406;2022-09-24T06:43:30;8.07;;;5.93;;
33814;SDS011;20121;51.910;8.406;2022-09-24T06:45:58;10.07;;;5.38;;
33814;SDS011;20121;51.910;8.406;2022-09-24T06:48:25;7.80;;;6.18;;
33814;SDS011;20121;51.910;8.406;2022-09-24T06:50:51;9.23;;;6.63;;
33814;SDS011;20121;51.910;8.406;2022-09-24T06:53:18;12.18;;;6.35;;
33814;SDS011;20121;51.910;8.406;2022-09-24T06:55:44;6.80;;;5.80;;
33814;SDS011;20121;51.910;8.406;2022-09-24T06:58:12;8.48;;;5.75;;
33814;SDS011;20121;51.910;8.406;2022-09-24T07:00:39;11.88;;;6.32;;
33814;SDS011;20121;51.910;8.406;2022-09-24T07:03:08;8.90;;;7.45;;
33814;SDS011;20121;51.910;8.406;2022-09-24T07:05:39;10.70;;;7.53;;
33814;SDS011;20121;51.910;8.406;2022-09-24T07:08:04;11.13;;;7.20;;
33814;SDS011;20121;51.910;8.406;2022-09-24T07:10:30;11.43;;;7.73;;
33814;SDS011;20121;51.910;8.406;2022-09-24T07:12:56;8.98;;;6.05;;
33814;SDS011;20121;51.910;8.406;2022-09-24T07:15:21;12.10;;;7.93;;
33814;SDS011;20121;51.910;8.406;2022-09-24T07:17:47;11.53;;;6.60;;
33814;SDS011;20121;51.910;8.406;2022-09-24T07:20:13;10.40;;;7.17;;
33814;SDS011;20121;51.910;8.406;2022-09-24T07:22:39;13.90;;;8.17;;
33814;SDS011;20121;51.910;8.406;2022-09-24T07:25:07;12.20;;;7.57;;
33814;SDS011;20121;51.910;8.406;2022-09-24T07:27:34;8.40;;;7.45;;
33814;SDS011;20121;51.910;8.406;2022-09-24T07:29:59;10.07;;;8.10;;
33814;SDS011;20121;51.910;8.406;2022-09-24T07:32:25;12.80;;;7.63;;
33814;SDS011;20121;51.910;8.406;2022-09-24T07:34:51;11.03;;;7.10;;
33814;SDS011;20121;51.910;8.406;2022-09-24T07:37:18;15.10;;;8.73;;
33814;SDS011;20121;51.910;8.406;2022-09-24T07:39:44;16.42;;;8.35;;
33814;SDS011;20121;51.910;8.406;2022-09-24T07:42:09;12.90;;;9.63;;
33814;SDS011;20121;51.910;8.406;2022-09-24T07:44:35;13.67;;;8.70;;
33814;SDS011;20121;51.910;8.406;2022-09-24T07:47:02;13.25;;;8.38;;
33814;SDS011;20121;51.910;8.406;2022-09-24T07:49:28;13.85;;;9.52;;
33814;SDS011;20121;51.910;8.406;2022-09-24T07:51:56;12.73;;;9.45;;
33814;SDS011;20121;51.910;8.406;2022-09-24T07:54:22;11.80;;;8.80;;
33814;SDS011;20121;51.910;8.406;2022-09-24T07:56:48;12.07;;;9.10;;
33814;SDS011;20121;51.910;8.406;2022-09-24T07:59:13;11.00;;;7.73;;
33814;SDS011;20121;51.910;8.406;2022-09-24T08:01:39;20.37;;;10.53;;
33814;SDS011;20121;51.910;8.406;2022-09-24T08:04:04;12.03;;;8.40;;
33814;SDS011;20121;51.910;8.406;2022-09-24T08:06:33;12.07;;;9.13;;
33814;SDS011;20121;51.910;8.406;2022-09-24T08:08:59;29.15;;;12.40;;
33814;SDS011;20121;51.910;8.406;2022-09-24T08:11:26;16.67;;;9.68;;
33814;SDS011;20121;51.910;8.406;2022-09-24T08:13:51;16.20;;;10.90;;
33814;SDS011;20121;51.910;8.406;2022-09-24T08:16:18;21.98;;;12.73;;
33814;SDS011;20121;51.910;8.406;2022-09-24T08:18:45;19.20;;;10.43;;
33814;SDS011;20121;51.910;8.406;2022-09-24T08:21:11;11.88;;;9.15;;
33814;SDS011;20121;51.910;8.406;2022-09-24T08:23:37;19.90;;;11.67;;
33814;SDS011;20121;51.910;8.406;2022-09-24T08:26:04;19.13;;;12.07;;
33814;SDS011;20121;51.910;8.406;2022-09-24T08:28:30;22.03;;;13.60;;
33814;SDS011;20121;51.910;8.406;2022-09-24T08:30:59;16.83;;;12.30;;
33814;SDS011;20121;51.910;8.406;2022-09-24T08:33:27;23.33;;;11.77;;
33814;SDS011;20121;51.910;8.406;2022-09-24T08:35:57;22.00;;;14.30;;
33814;SDS011;20121;51.910;8.406;2022-09-24T08:38:24;18.85;;;13.90;;
33814;SDS011;20121;51.910;8.406;2022-09-24T08:46:16;18.60;;;10.35;;
33814;SDS011;20121;51.910;8.406;2022-09-24T08:49:26;14.93;;;10.63;;
33814;SDS011;20121;51.910;8.406;2022-09-24T08:52:00;23.13;;;13.15;;
33814;SDS011;20121;51.910;8.406;2022-09-24T08:54:38;20.73;;;13.00;;
33814;SDS011;20121;51.910;8.406;2022-09-24T08:57:09;22.50;;;12.45;;
33814;SDS011;20121;51.910;8.406;2022-09-24T08:59:37;20.05;;;10.70;;
33814;SDS011;20121;51.910;8.406;2022-09-24T09:07:44;18.83;;;11.57;;
33814;SDS011;20121;51.910;8.406;2022-09-24T09:10:30;23.55;;;11.02;;
33814;SDS011;20121;51.910;8.406;2022-09-24T09:13:03;19.73;;;11.23;;
33814;SDS011;20121;51.910;8.406;2022-09-24T09:15:35;23.30;;;13.00;;
33814;SDS011;20121;51.910;8.406;2022-09-24T09:18:13;11.52;;;9.90;;
33814;SDS011;20121;51.910;8.406;2022-09-24T09:21:01;24.77;;;10.85;;
33814;SDS011;20121;51.910;8.406;2022-09-24T09:23:41;16.42;;;10.70;;
33814;SDS011;20121;51.910;8.406;2022-09-24T09:26:13;17.98;;;10.98;;
33814;SDS011;20121;51.910;8.406;2022-09-24T09:28:39;14.68;;;9.48;;
33814;SDS011;20121;51.910;8.406;2022-09-24T09:42:16;20.23;;;11.13;;
33814;SDS011;20121;51.910;8.406;2022-09-24T09:44:58;17.30;;;11.40;;
33814;SDS011;20121;51.910;8.406;2022-09-24T09:47:45;15.13;;;11.93;;
33814;SDS011;20121;51.910;8.406;2022-09-24T09:50:24;17.02;;;9.80;;
33814;SDS011;20121;51.910;8.406;2022-09-24T09:53:02;24.02;;;12.60;;
33814;SDS011;20121;51.910;8.406;2022-09-24T09:55:33;14.68;;;9.90;;
33814;SDS011;20121;51.910;8.406;2022-09-24T09:58:35;16.30;;;11.38;;
33814;SDS011;20121;51.910;8.406;2022-09-24T10:01:11;17.00;;;11.13;;
33814;SDS011;20121;51.910;8.406;2022-09-24T10:03:46;21.67;;;12.60;;
33814;SDS011;20121;51.910;8.406;2022-09-24T10:06:21;15.05;;;10.43;;
33814;SDS011;20121;51.910;8.406;2022-09-24T10:08:49;18.63;;;10.65;;
33814;SDS011;20121;51.910;8.406;2022-09-24T10:11:15;16.07;;;8.63;;
33814;SDS011;20121;51.910;8.406;2022-09-24T10:13:41;18.15;;;10.30;;
33814;SDS011;20121;51.910;8.406;2022-09-24T10:16:08;18.77;;;10.50;;
33814;SDS011;20121;51.910;8.406;2022-09-24T10:18:48;18.25;;;10.60;;
33814;SDS011;20121;51.910;8.406;2022-09-24T10:21:31;12.82;;;9.05;;
33814;SDS011;20121;51.910;8.406;2022-09-24T10:23:59;19.48;;;10.73;;
33814;SDS011;20121;51.910;8.406;2022-09-24T10:26:37;13.68;;;9.88;;
33814;SDS011;20121;51.910;8.406;2022-09-24T10:29:05;16.23;;;10.65;;
33814;SDS011;20121;51.910;8.406;2022-09-24T10:32:16;14.23;;;9.07;;
33814;SDS011;20121;51.910;8.406;2022-09-24T10:34:57;13.20;;;9.00;;
33814;SDS011;20121;51.910;8.406;2022-09-24T10:37:25;16.48;;;10.23;;
33814;SDS011;20121;51.910;8.406;2022-09-24T10:42:35;14.88;;;10.25;;
33814;SDS011;20121;51.910;8.406;2022-09-24T10:45:01;17.33;;;11.30;;
33814;SDS011;20121;51.910;8.406;2022-09-24T10:47:35;15.32;;;9.55;;
33814;SDS011;20121;51.910;8.406;2022-09-24T10:50:25;15.82;;;11.50;;
33814;SDS011;20121;51.910;8.406;2022-09-24T11:01:37;11.95;;;9.23;;
33814;SDS011;20121;51.910;8.406;2022-09-24T11:07:24;17.65;;;9.88;;
33814;SDS011;20121;51.910;8.406;2022-09-24T11:10:19;11.18;;;7.78;;
33814;SDS011;20121;51.910;8.406;2022-09-24T11:31:54;13.32;;;7.75;;
33814;SDS011;20121;51.910;8.406;2022-09-24T11:37:32;15.43;;;7.85;;
33814;SDS011;20121;51.910;8.406;2022-09-24T11:49:09;11.45;;;8.20;;
33814;SDS011;20121;51.910;8.406;2022-09-24T11:54:20;16.15;;;8.52;;
33814;SDS011;20121;51.910;8.406;2022-09-24T11:56:56;12.57;;;9.10;;
33814;SDS011;20121;51.910;8.406;2022-09-24T11:59:37;17.02;;;8.70;;
33814;SDS011;20121;51.910;8.406;2022-09-24T12:02:19;11.07;;;7.35;;
33814;SDS011;20121;51.910;8.406;2022-09-24T12:07:46;16.27;;;7.93;;
33814;SDS011;20121;51.910;8.406;2022-09-24T12:16:05;8.88;;;6.30;;
33814;SDS011;20121;51.910;8.406;2022-09-24T12:18:50;12.70;;;7.80;;
33814;SDS011;20121;51.910;8.406;2022-09-24T12:21:38;7.50;;;6.05;;
33814;SDS011;20121;51.910;8.406;2022-09-24T12:27:06;12.25;;;7.70;;
33814;SDS011;20121;51.910;8.406;2022-09-24T12:32:44;14.95;;;7.25;;
33814;SDS011;20121;51.910;8.406;2022-09-24T12:35:32;8.73;;;6.30;;
33814;SDS011;20121;51.910;8.406;2022-09-24T12:43:31;13.13;;;7.72;;
33814;SDS011;20121;51.910;8.406;2022-09-24T12:46:13;13.23;;;7.72;;
33814;SDS011;20121;51.910;8.406;2022-09-24T12:48:49;8.18;;;5.55;;
33814;SDS011;20121;51.910;8.406;2022-09-24T12:51:17;12.50;;;7.00;;
33814;SDS011;20121;51.910;8.406;2022-09-24T12:53:58;13.02;;;6.80;;
33814;SDS011;20121;51.910;8.406;2022-09-24T12:56:29;13.00;;;7.63;;
33814;SDS011;20121;51.910;8.406;2022-09-24T12:58:55;13.10;;;7.47;;
33814;SDS011;20121;51.910;8.406;2022-09-24T13:03:59;13.98;;;7.95;;
33814;SDS011;20121;51.910;8.406;2022-09-24T13:06:37;15.52;;;8.90;;
33814;SDS011;20121;51.910;8.406;2022-09-24T13:09:22;9.35;;;6.75;;
33814;SDS011;20121;51.910;8.406;2022-09-24T13:12:01;13.00;;;9.43;;
33814;SDS011;20121;51.910;8.406;2022-09-24T13:14:39;13.60;;;7.55;;
33814;SDS011;20121;51.910;8.406;2022-09-24T13:17:07;12.68;;;7.85;;
33814;SDS011;20121;51.910;8.406;2022-09-24T13:19:39;15.33;;;7.83;;
33814;SDS011;20121;51.910;8.406;2022-09-24T13:30:02;13.90;;;8.98;;
33814;SDS011;20121;51.910;8.406;2022-09-24T13:32:45;13.48;;;8.25;;
33814;SDS011;20121;51.910;8.406;2022-09-24T13:35:33;19.83;;;7.47;;
33814;SDS011;20121;51.910;8.406;2022-09-24T13:38:07;11.25;;;6.95;;
33814;SDS011;20121;51.910;8.406;2022-09-24T13:40:42;15.75;;;9.70;;
33814;SDS011;20121;51.910;8.406;2022-09-24T13:43:16;9.80;;;7.40;;
33814;SDS011;20121;51.910;8.406;2022-09-24T13:45:54;12.68;;;7.75;;
33814;SDS011;20121;51.910;8.406;2022-09-24T13:51:01;10.95;;;7.10;;
33814;SDS011;20121;51.910;8.406;2022-09-24T13:53:48;12.48;;;7.85;;
33814;SDS011;20121;51.910;8.406;2022-09-24T13:56:33;14.85;;;9.45;;
33814;SDS011;20121;51.910;8.406;2022-09-24T13:59:03;17.97;;;8.73;;
33814;SDS011;20121;51.910;8.406;2022-09-24T14:01:34;15.10;;;8.73;;
33814;SDS011;20121;51.910;8.406;2022-09-24T14:04:04;13.90;;;9.13;;
33814;SDS011;20121;51.910;8.406;2022-09-24T14:07:00;13.70;;;8.48;;
33814;SDS011;20121;51.910;8.406;2022-09-24T14:09:28;10.63;;;7.05;;
33814;SDS011;20121;51.910;8.406;2022-09-24T14:11:59;11.38;;;6.40;;
33814;SDS011;20121;51.910;8.406;2022-09-24T14:14:28;14.68;;;8.68;;
33814;SDS011;20121;51.910;8.406;2022-09-24T14:17:07;11.93;;;7.65;;
33814;SDS011;20121;51.910;8.406;2022-09-24T14:19:36;11.30;;;6.75;;
33814;SDS011;20121;51.910;8.406;2022-09-24T14:22:02;11.33;;;7.37;;
33814;SDS011;20121;51.910;8.406;2022-09-24T14:24:41;12.18;;;8.43;;
33814;SDS011;20121;51.910;8.406;2022-09-24T14:27:28;12.35;;;7.45;;
33814;SDS011;20121;51.910;8.406;2022-09-24T14:30:00;10.75;;;7.18;;
33814;SDS011;20121;51.910;8.406;2022-09-24T14:32:32;10.90;;;8.57;;
33814;SDS011;20121;51.910;8.406;2022-09-24T14:35:04;14.40;;;9.52;;
33814;SDS011;20121;51.910;8.406;2022-09-24T14:37:38;10.77;;;6.10;;
33814;SDS011;20121;51.910;8.406;2022-09-24T14:40:14;11.38;;;8.18;;
33814;SDS011;20121;51.910;8.406;2022-09-24T14:42:42;11.70;;;7.53;;
33814;SDS011;20121;51.910;8.406;2022-09-24T14:45:20;11.32;;;6.32;;
33814;SDS011;20121;51.910;8.406;2022-09-24T14:48:05;9.32;;;6.68;;
33814;SDS011;20121;51.910;8.406;2022-09-24T14:50:43;8.20;;;6.05;;
33814;SDS011;20121;51.910;8.406;2022-09-24T14:56:16;12.52;;;7.57;;
33814;SDS011;20121;51.910;8.406;2022-09-24T14:58:50;11.20;;;7.60;;
33814;SDS011;20121;51.910;8.406;2022-09-24T15:01:17;12.97;;;6.50;;
33814;SDS011;20121;51.910;8.406;2022-09-24T15:03:55;11.93;;;6.97;;
33814;SDS011;20121;51.910;8.406;2022-09-24T15:06:31;11.35;;;7.55;;
33814;SDS011;20121;51.910;8.406;2022-09-24T15:09:03;12.63;;;7.47;;
33814;SDS011;20121;51.910;8.406;2022-09-24T15:11:39;13.88;;;8.07;;
33814;SDS011;20121;51.910;8.406;2022-09-24T15:14:17;11.60;;;7.47;;
33814;SDS011;20121;51.910;8.406;2022-09-24T15:16:49;7.78;;;6.22;;
33814;SDS011;20121;51.910;8.406;2022-09-24T15:19:22;11.15;;;8.18;;
33814;SDS011;20121;51.910;8.406;2022-09-24T15:21:54;11.00;;;7.97;;
33814;SDS011;20121;51.910;8.406;2022-09-24T15:24:21;15.75;;;8.63;;
33814;SDS011;20121;51.910;8.406;2022-09-24T15:27:05;8.68;;;6.10;;
33814;SDS011;20121;51.910;8.406;2022-09-24T15:29:41;12.93;;;7.85;;
33814;SDS011;20121;51.910;8.406;2022-09-24T15:32:18;9.63;;;6.97;;
33814;SDS011;20121;51.910;8.406;2022-09-24T15:34:45;9.43;;;6.82;;
33814;SDS011;20121;51.910;8.406;2022-09-24T15:37:12;12.77;;;6.63;;
33814;SDS011;20121;51.910;8.406;2022-09-24T15:39:41;18.10;;;7.03;;
33814;SDS011;20121;51.910;8.406;2022-09-24T15:42:15;13.70;;;8.15;;
33814;SDS011;20121;51.910;8.406;2022-09-24T15:44:43;17.33;;;8.32;;
33814;SDS011;20121;51.910;8.406;2022-09-24T15:47:09;11.50;;;7.07;;
33814;SDS011;20121;51.910;8.406;2022-09-24T15:49:35;12.00;;;7.78;;
33814;SDS011;20121;51.910;8.406;2022-09-24T15:52:04;17.50;;;8.50;;
33814;SDS011;20121;51.910;8.406;2022-09-24T15:54:37;9.73;;;7.85;;
33814;SDS011;20121;51.910;8.406;2022-09-24T15:57:03;12.47;;;7.70;;
33814;SDS011;20121;51.910;8.406;2022-09-24T15:59:28;12.90;;;8.43;;
33814;SDS011;20121;51.910;8.406;2022-09-24T16:01:56;9.17;;;6.43;;
33814;SDS011;20121;51.910;8.406;2022-09-24T16:04:25;12.93;;;8.80;;
33814;SDS011;20121;51.910;8.406;2022-09-24T16:06:51;14.93;;;8.03;;
33814;SDS011;20121;51.910;8.406;2022-09-24T16:09:16;16.30;;;6.87;;
33814;SDS011;20121;51.910;8.406;2022-09-24T16:11:42;13.50;;;8.53;;
33814;SDS011;20121;51.910;8.406;2022-09-24T16:14:08;10.50;;;8.00;;
33814;SDS011;20121;51.910;8.406;2022-09-24T16:16:34;11.50;;;7.15;;
33814;SDS011;20121;51.910;8.406;2022-09-24T16:19:02;13.18;;;7.78;;
33814;SDS011;20121;51.910;8.406;2022-09-24T16:21:27;10.30;;;7.40;;
33814;SDS011;20121;51.910;8.406;2022-09-24T16:23:56;10.90;;;8.43;;
33814;SDS011;20121;51.910;8.406;2022-09-24T16:26:22;9.98;;;7.13;;
33814;SDS011;20121;51.910;8.406;2022-09-24T16:28:48;12.10;;;8.63;;
33814;SDS011;20121;51.910;8.406;2022-09-24T16:31:16;18.08;;;8.32;;
33814;SDS011;20121;51.910;8.406;2022-09-24T16:33:44;9.80;;;7.30;;
33814;SDS011;20121;51.910;8.406;2022-09-24T16:36:10;14.30;;;9.20;;
33814;SDS011;20121;51.910;8.406;2022-09-24T16:38:36;14.53;;;8.67;;
33814;SDS011;20121;51.910;8.406;2022-09-24T16:41:03;17.08;;;8.90;;
33814;SDS011;20121;51.910;8.406;2022-09-24T16:43:30;10.93;;;8.48;;
33814;SDS011;20121;51.910;8.406;2022-09-24T16:46:03;9.90;;;7.38;;
33814;SDS011;20121;51.910;8.406;2022-09-24T16:48:30;10.57;;;7.85;;
33814;SDS011;20121;51.910;8.406;2022-09-24T16:51:06;13.50;;;10.38;;
33814;SDS011;20121;51.910;8.406;2022-09-24T16:53:34;11.45;;;8.65;;